ADDS METAR Data INFO
IDs: Format: Raw Decoded Include TAF

Data at: 0426 UTC 26 May 2018

KSOA 260415Z AUTO 14005KT 10SM CLR 28/16 A2998 RMK AO2
KSOA 260355Z AUTO 17006KT 10SM CLR 28/16 A2997 RMK AO2
KSOA 260335Z AUTO 18005KT 10SM CLR 28/16 A2996 RMK AO2
KSOA 260315Z AUTO 18004KT 10SM CLR 29/16 A2996 RMK AO2
KSOA 260255Z AUTO 17005KT 10SM CLR 29/16 A2995 RMK AO2
KSOA 260235Z AUTO 18006KT 10SM CLR 30/16 A2995 RMK AO2
KSOA 260215Z AUTO 19005KT 10SM CLR 30/16 A2994 RMK AO2
KSOA 260155Z AUTO 17007KT 10SM CLR 31/15 A2993 RMK AO2
KSOA 260135Z AUTO 18008KT 10SM CLR 32/15 A2992 RMK AO2
KSOA 260115Z AUTO 17009KT 10SM CLR 32/15 A2992 RMK AO2
KSOA 260055Z AUTO 16008KT 10SM CLR 33/15 A2993 RMK AO2
KSOA 260035Z AUTO 18009KT 10SM FEW080 34/15 A2993 RMK AO2
KSOA 260015Z AUTO 18008KT 10SM CLR 34/15 A2994 RMK AO2
KSOA 252355Z AUTO 15008KT 10SM CLR 34/15 A2993 RMK AO2
KSOA 252335Z AUTO 15009KT 10SM CLR 34/15 A2993 RMK AO2
KSOA 252315Z AUTO VRB03KT 10SM CLR 34/14 A2993 RMK AO2
KSOA 252255Z AUTO 15009KT 10SM CLR 35/15 A2994 RMK AO2
KSOA 252235Z AUTO 17008KT 10SM CLR 34/15 A2995 RMK AO2
KSOA 252215Z AUTO 18009KT 150V210 10SM CLR 35/15 A2995 RMK AO2
KSOA 252155Z AUTO 13005G13KT 10SM CLR 34/15 A2995 RMK AO2
KSOA 252135Z AUTO 19009G15KT 10SM CLR 35/15 A2996 RMK AO2
KSOA 252115Z AUTO 15008KT 10SM FEW070 34/15 A2997 RMK AO2
KSOA 252055Z AUTO 17010KT 10SM FEW070 34/16 A2998 RMK AO2
KSOA 252035Z AUTO 22010KT 10SM CLR 35/16 A2999 RMK AO2
KSOA 252015Z AUTO 15007G17KT 10SM CLR 34/16 A2999 RMK AO2
KSOA 251955Z AUTO 21007G16KT 10SM CLR 34/16 A3000 RMK AO2
KSOA 251935Z AUTO VRB03G13KT 10SM FEW046 FEW075 FEW090 33/16 A3000 RMK AO2
KSOA 251915Z AUTO 21008G14KT 10SM FEW036 FEW046 SCT090 33/16 A3001 RMK AO2
KSOA 251855Z AUTO 17008G15KT 10SM FEW038 FEW048 SCT070 33/17 A3003 RMK AO2
KSOA 251835Z AUTO 18010KT 10SM SCT048 SCT070 SCT085 33/17 A3004 RMK AO2
KSOA 251815Z AUTO 19008G13KT 10SM FEW047 FEW075 SCT095 32/17 A3004 RMK AO2
KSOA 251755Z AUTO 21009G14KT 170V230 10SM CLR 31/17 A3005 RMK AO2
KSOA 251735Z AUTO 19006G12KT 10SM CLR 31/19 A3006 RMK AO2
KSOA 251715Z AUTO 20009KT 160V220 10SM CLR 30/19 A3007 RMK AO2
KSOA 251655Z AUTO 19009KT 10SM CLR 30/19 A3006 RMK AO2
KSOA 251635Z AUTO 19008G14KT 150V220 10SM CLR 29/20 A3007 RMK AO2
KSOA 251615Z AUTO 20007G14KT 10SM CLR 29/20 A3008 RMK AO2
KSOA 251555Z AUTO 18011KT 10SM FEW023 28/20 A3008 RMK AO2
KSOA 251535Z AUTO 18009KT 10SM FEW019 27/20 A3009 RMK AO2
KSOA 251515Z AUTO 17011KT 10SM SCT018 26/20 A3009 RMK AO2
KSOA 251455Z AUTO 19008KT 10SM BKN015 25/20 A3010 RMK AO2
KSOA 251435Z AUTO 17010KT 10SM BKN014 25/20 A3010 RMK AO2
KSOA 251415Z AUTO 18011KT 10SM OVC012 24/20 A3009 RMK AO2
KSOA 251355Z AUTO 18011KT 10SM OVC010 23/20 A3009 RMK AO2
KSOA 251335Z AUTO 17008G13KT 10SM OVC009 23/21 A3009 RMK AO2
KSOA 251315Z AUTO 18008KT 10SM OVC008 23/20 A3008 RMK AO2
KSOA 251255Z AUTO 18006KT 10SM OVC008 22/20 A3008 RMK AO2
KSOA 251235Z AUTO 18004KT 10SM BKN010 21/19 A3008 RMK AO2
KSOA 251215Z AUTO 17004KT 10SM CLR 21/19 A3007 RMK AO2
KSOA 251155Z AUTO 00000KT 10SM CLR 21/19 A3006 RMK AO2
KSOA 251135Z AUTO 00000KT 10SM CLR 21/19 A3005 RMK AO2
KSOA 251115Z AUTO 00000KT 10SM CLR 21/19 A3005 RMK AO2
KSOA 251055Z AUTO 16003KT 10SM CLR 21/19 A3004 RMK AO2
KSOA 251035Z AUTO 15003KT 10SM CLR 22/19 A3004 RMK AO2
KSOA 251015Z AUTO 16004KT 10SM CLR 22/18 A3005 RMK AO2
KSOA 250950Z AUTO 16004KT CLR 22/18 A3004 RMK AO2
KSOA 250935Z AUTO 18007KT 10SM CLR 22/18 A3004 RMK AO2
KSOA 250915Z AUTO 16004KT 10SM CLR 22/17 A3005 RMK AO2
KSOA 250855Z AUTO 14003KT 10SM CLR 22/17 A3006 RMK AO2
KSOA 250835Z AUTO 00000KT 10SM CLR 23/17 A3005 RMK AO2
KSOA 250815Z AUTO 18004KT 10SM CLR 23/17 A3006 RMK AO2
KSOA 250755Z AUTO 00000KT 10SM CLR 22/17 A3006 RMK AO2
KSOA 250735Z AUTO 18003KT 10SM CLR 22/17 A3006 RMK AO2
KSOA 250715Z AUTO 19003KT 10SM CLR 23/17 A3007 RMK AO2
KSOA 250655Z AUTO 17003KT 10SM CLR 24/16 A3008 RMK AO2
KSOA 250635Z AUTO 18003KT 10SM CLR 23/17 A3008 RMK AO2
KSOA 250615Z AUTO 19004KT 10SM CLR 24/17 A3009 RMK AO2
KSOA 250555Z AUTO 17003KT 10SM CLR 24/16 A3009 RMK AO2
KSOA 250535Z AUTO 15003KT 10SM CLR 25/17 A3010 RMK AO2
KSOA 250515Z AUTO 18005KT 10SM CLR 25/17 A3011 RMK AO2
KSOA 250455Z AUTO 20004KT 10SM CLR 25/17 A3012 RMK AO2
KSOA 250435Z AUTO 18004KT 10SM CLR 26/17 A3011 RMK AO2
KSOA 250415Z AUTO 18004KT 10SM CLR 26/17 A3011 RMK AO2
KSOA 250355Z AUTO 16004KT 10SM CLR 26/17 A3011 RMK AO2
KSOA 250335Z AUTO 00000KT 10SM CLR 26/17 A3010 RMK AO2
KSOA 250315Z AUTO 18003KT 10SM CLR 27/17 A3010 RMK AO2
KSOA 250255Z AUTO 20004KT 10SM CLR 27/17 A3009 RMK AO2
KSOA 250235Z AUTO 19003KT 10SM CLR 27/16 A3007 RMK AO2
KSOA 250215Z AUTO 16004KT 10SM CLR 28/16 A3006 RMK AO2
KSOA 250155Z AUTO 16004KT 10SM CLR 29/15 A3006 RMK AO2
KSOA 250135Z AUTO 15004KT 10SM CLR 30/15 A3006 RMK AO2
KSOA 250115Z AUTO 18004KT 10SM CLR 30/16 A3006 RMK AO2
KSOA 250055Z AUTO 17005KT 10SM CLR 30/15 A3005 RMK AO2
KSOA 250035Z AUTO 15005KT 10SM CLR 31/15 A3004 RMK AO2
KSOA 250015Z AUTO 15006KT 10SM CLR 31/15 A3005 RMK AO2
KSOA 242355Z AUTO 14006KT 10SM CLR 31/15 A3004 RMK AO2
KSOA 242335Z AUTO 17008G13KT 10SM CLR 32/15 A3004 RMK AO2
KSOA 242315Z AUTO VRB04G11KT 10SM FEW070 32/15 A3005 RMK AO2
KSOA 242255Z AUTO 20004KT 10SM FEW070 32/16 A3005 RMK AO2
KSOA 242235Z AUTO 14005KT 10SM CLR 32/16 A3006 RMK AO2
KSOA 242215Z AUTO 16007KT 10SM FEW065 31/16 A3007 RMK AO2
KSOA 242155Z AUTO 13009KT 10SM SCT060 SCT070 31/16 A3008 RMK AO2
KSOA 242135Z AUTO 11007G12KT 10SM BKN060 BKN110 31/16 A3008 RMK AO2
KSOA 242115Z AUTO VRB04KT 10SM FEW042 BKN055 BKN120 31/16 A3009 RMK AO2
KSOA 242055Z AUTO 13007G13KT 10SM FEW041 SCT055 SCT120 32/17 A3010 RMK AO2
KSOA 242035Z AUTO VRB06KT 10SM FEW037 FEW048 FEW055 31/16 A3010 RMK AO2
KSOA 242015Z AUTO VRB05G11KT 10SM CLR 30/17 A3011 RMK AO2
KSOA 241955Z AUTO 15006KT 10SM SCT049 SCT060 SCT075 30/17 A3012 RMK AO2
KSOA 241935Z AUTO 14007KT 10SM SCT047 SCT060 SCT075 30/18 A3013 RMK AO2
KSOA 241915Z AUTO 17005G13KT 10SM FEW038 FEW047 SCT070 30/18 A3013 RMK AO2
KSOA 241855Z AUTO 00000G12KT 10SM FEW041 FEW050 SCT070 29/18 A3014 RMK AO2
KSOA 241835Z AUTO 13007KT 110V170 10SM FEW037 FEW048 SCT060 29/19 A3014 RMK AO2
KSOA 241815Z AUTO 19006G12KT 10SM SCT035 BKN048 BKN070 29/19 A3015 RMK AO2
KSOA 241755Z AUTO 19005KT 10SM SCT034 SCT047 BKN090 28/19 A3016 RMK AO2
KSOA 241735Z AUTO 15007KT 10SM SCT025 SCT033 SCT055 27/20 A3017 RMK AO2
KSOA 241715Z AUTO 22008KT 10SM BKN025 OVC034 27/20 A3017 RMK AO2
KSOA 241655Z AUTO 18007KT 9SM BKN025 BKN030 BKN038 27/20 A3018 RMK AO2
KSOA 241635Z AUTO 17009KT 10SM FEW028 SCT038 BKN043 26/19 A3017 RMK AO2